Flight Track Log - Related Links

Times and Time Zones

All times are in EDT time to prevent confusion due to time zone crossing. See the SWA2989 flight status page for this flight to view local times or setup timezone preferences in your user account.

Time Position Orientation Groundspeed Altitude Reporting Facility
EDT Latitude Longitude Course Direction KTS MPH feet Rate Location/Type
Sun 08:33:40 AM 35.3725 -97.5889 141° Southeast 149 171 2,600  Level Fort Worth Center
Sun 08:34:41 AM 35.3369 -97.5539 146° Southeast 211 243 4,300 2,043 Climbing Fort Worth Center
Sun 08:35:14 AM 35.3567 -97.5056 63° Northeast 264 304 5,800 3,049 Climbing Fort Worth Center
Sun 08:35:42 AM 35.3753 -97.4675 59° Northeast 300 345 7,400 3,541 Climbing Fort Worth Center
Sun 08:36:15 AM 35.3956 -97.4214 62° Northeast 287 330 9,400 3,000 Climbing Fort Worth Center
Sun 08:37:16 AM 35.4397 -97.3400 56° Northeast 319 367 12,100 3,124 Climbing Fort Worth Center
Sun 08:38:16 AM 35.4900 -97.2325 60° Northeast 353 406 15,700 3,372 Climbing Fort Worth Center
Sun 08:39:17 AM 35.5450 -97.1247 58° Northeast 366 421 18,900 2,803 Climbing Fort Worth Center
Sun 08:40:18 AM 35.6014 -97.0108 59° Northeast 386 444 21,400 2,459 Climbing Fort Worth Center
Sun 08:41:19 AM 35.6628 -96.8889 58° Northeast 414 476 23,900 2,571 Climbing Fort Worth Center
Sun 08:41:49 AM 35.6981 -96.8133 60° Northeast 424 488 25,300 2,308 Climbing Kansas City Center
Sun 08:42:50 AM 35.7617 -96.6853 58° Northeast 434 499 27,400 1,967 Climbing Kansas City Center
Sun 08:43:51 AM 35.8264 -96.5528 59° Northeast 448 516 29,300 1,770 Climbing Kansas City Center
Sun 08:44:52 AM 35.8925 -96.4172 59° Northeast 459 528 31,000 1,636 Climbing Kansas City Center
Sun 08:45:52 AM 35.9639 -96.2711 59° Northeast 471 542 32,600 1,587 Climbing Kansas City Center
Sun 08:46:53 AM 36.0322 -96.1292 59° Northeast 477 549 34,200 1,180 Climbing Kansas City Center
Sun 08:47:54 AM 36.1022 -95.9844 59° Northeast 485 558 35,000 1,279 Climbing Kansas City Center
Sun 08:48:55 AM 36.1719 -95.8386 59° Northeast 491 565 36,800 1,623 Climbing Kansas City Center
Sun 08:49:56 AM 36.2325 -95.6675 66° East 483 556 38,300 1,082 Climbing Kansas City Center
Sun 08:50:57 AM 36.2778 -95.5097 70° East 485 558 39,000 1,131 Climbing Kansas City Center
Sun 08:51:58 AM 36.3242 -95.3503 70° East 491 565 40,600 992 Climbing Kansas City Center
Sun 08:52:58 AM 36.3672 -95.1944 71° East 487 560 41,000 198 Climbing Kansas City Center
Sun 08:53:59 AM 36.4125 -95.0397 70° East 483 556 41,000  Level Kansas City Center
Sun 08:55:00 AM 36.4561 -94.8861 71° East 481 554 41,000  Level Kansas City Center
Sun 08:56:01 AM 36.5000 -94.7339 70° East 474 545 41,000  Level Kansas City Center
Sun 08:57:02 AM 36.5544 -94.5903 65° Northeast 464 534 41,000  Level Kansas City Center
Sun 08:58:03 AM 36.6081 -94.4442 65° Northeast 463 533 41,000  Level Kansas City Center
Sun 08:59:04 AM 36.6619 -94.2969 65° Northeast 465 535 41,000  Level Kansas City Center
Sun 09:00:05 AM 36.7150 -94.1483 66° East 465 535 41,000  Level Kansas City Center
Sun 09:01:05 AM 36.7692 -94.0000 65° Northeast 466 536 41,000  Level Kansas City Center
Sun 09:02:06 AM 36.8228 -93.8514 66° East 467 537 41,000  Level Kansas City Center
Sun 09:03:07 AM 36.8856 -93.6753 66° East 468 539 41,000  Level Kansas City Center
Sun 09:04:08 AM 36.9397 -93.5258 66° East 468 539 41,000  Level Kansas City Center
Sun 09:05:09 AM 36.9931 -93.3761 66° East 468 539 41,000  Level Kansas City Center
Sun 09:06:10 AM 37.0469 -93.2253 66° East 469 540 41,000  Level Kansas City Center
Sun 09:07:11 AM 37.0994 -93.0739 66° East 469 540 41,000  Level Kansas City Center
Sun 09:08:12 AM 37.1514 -92.9211 67° East 471 542 41,000  Level Kansas City Center
Sun 09:09:13 AM 37.2047 -92.7692 66° East 472 543 41,000  Level Kansas City Center
Sun 09:10:14 AM 37.2567 -92.6169 67° East 472 543 41,000  Level Kansas City Center
Sun 09:11:14 AM 37.3089 -92.4647 67° East 472 543 41,000  Level Kansas City Center
Sun 09:12:15 AM 37.3608 -92.3122 67° East 472 543 41,000  Level Kansas City Center
Sun 09:13:16 AM 37.4139 -92.1578 67° East 478 550 41,000  Level Kansas City Center
Sun 09:14:17 AM 37.4656 -92.0058 67° East 478 550 41,000  Level Kansas City Center
Sun 09:15:18 AM 37.5175 -91.8531 67° East 478 550 41,000  Level Kansas City Center
Sun 09:16:19 AM 37.5692 -91.6989 67° East 478 550 41,000  Level Kansas City Center
Sun 09:17:20 AM 37.6311 -91.5125 67° East 478 550 41,000  Level Kansas City Center
Sun 09:18:21 AM 37.6833 -91.3572 67° East 479 551 41,000  Level Kansas City Center
Sun 09:19:22 AM 37.7328 -91.2028 68° East 479 551 41,000  Level Kansas City Center
Sun 09:20:23 AM 37.7833 -91.0503 67° East 477 549 41,000  Level Kansas City Center
Sun 09:21:24 AM 37.8267 -90.9200 67° East 473 544 41,000  Level Kansas City Center
Sun 09:22:25 AM 37.8850 -90.7356 68° East 473 544 41,000  Level Kansas City Center
Sun 09:23:26 AM 37.9339 -90.5828 68° East 473 544 41,000  Level Kansas City Center
Sun 09:24:27 AM 37.9831 -90.4289 68° East 473 544 41,000  Level Kansas City Center
Sun 09:25:28 AM 38.0331 -90.2728 68° East 478 550 41,000  Level Kansas City Center
Sun 09:26:29 AM 38.0814 -90.1178 68° East 478 550 41,000  Level Kansas City Center
Sun 09:27:30 AM 38.1300 -89.9628 68° East 478 550 41,000  Level Kansas City Center
Sun 09:28:32 AM 38.1789 -89.8069 68° East 478 550 41,000  Level Kansas City Center
Sun 09:29:33 AM 38.2269 -89.6514 68° East 478 550 41,000  Level Kansas City Center
Sun 09:30:34 AM 38.2856 -89.4625 68° East 479 551 41,000  Level Kansas City Center
Sun 09:31:35 AM 38.3350 -89.3042 68° East 480 552 41,000  Level Kansas City Center
Sun 09:32:36 AM 38.3811 -89.1483 69° East 482 555 41,000  Level Kansas City Center
Sun 09:33:37 AM 38.4317 -88.9806 69° East 483 556 41,000  Level Kansas City Center
Sun 09:34:38 AM 38.4806 -88.8219 68° East 483 556 41,000  Level Kansas City Center
Sun 09:35:40 AM 38.5283 -88.6622 69° East 483 556 41,000  Level Kansas City Center
Sun 09:36:41 AM 38.5750 -88.5100 69° East 479 551 41,000  Level Kansas City Center
Sun 09:37:42 AM 38.6239 -88.3464 69° East 482 555 41,000  Level Kansas City Center
Sun 09:38:43 AM 38.6733 -88.1839 69° East 489 563 41,000  Level Kansas City Center
Sun 09:39:45 AM 38.7208 -88.0225 69° East 487 560 41,000  Level Kansas City Center
Sun 09:40:46 AM 38.7625 -87.8603 72° East 482 555 41,000  Level Kansas City Center
Sun 09:41:47 AM 38.7956 -87.6933 76° East 481 554 41,000  Level Kansas City Center
Sun 09:42:48 AM 38.8381 -87.4936 75° East 481 554 41,000  Level Kansas City Center
Sun 09:44:02 AM 38.8783 -87.2953 75° East 482 555 41,000  Level Indianapolis Center
Sun 09:45:05 AM 38.9125 -87.1286 75° East 482 555 41,000  Level Indianapolis Center
Sun 09:46:05 AM 38.9469 -86.9625 75° East 481 554 41,000  Level Indianapolis Center
Sun 09:47:09 AM 38.9803 -86.7969 75° East 480 552 41,000  Level Indianapolis Center
Sun 09:48:08 AM 39.0133 -86.6322 75° East 476 548 41,000  Level Indianapolis Center
Sun 09:49:10 AM 39.0442 -86.4778 76° East 476 548 41,000  Level Indianapolis Center
Sun 09:50:11 AM 39.0772 -86.3119 76° East 477 549 41,000  Level Indianapolis Center
Sun 09:51:13 AM 39.1094 -86.1461 76° East 477 549 41,000  Level Indianapolis Center
Sun 09:52:14 AM 39.1483 -85.9461 76° East 482 555 41,000  Level Indianapolis Center
Sun 09:53:15 AM 39.1803 -85.7792 76° East 482 555 41,000  Level Indianapolis Center
Sun 09:54:19 AM 39.2128 -85.6128 76° East 482 555 41,000  Level Indianapolis Center
Sun 09:55:20 AM 39.2442 -85.4450 76° East 483 556 41,000  Level Indianapolis Center
Sun 09:56:20 AM 39.2744 -85.2786 77° East 482 555 41,000  Level Indianapolis Center
Sun 09:57:21 AM 39.3067 -85.1128 76° East 482 555 41,000  Level Indianapolis Center
Sun 09:58:25 AM 39.3433 -84.9133 77° East 481 554 41,000  Level Indianapolis Center
Sun 09:59:25 AM 39.3692 -84.7689 77° East 480 552 41,000  Level Indianapolis Center
Sun 10:00:25 AM 39.3994 -84.6025 77° East 479 551 41,000  Level Indianapolis Center
Sun 10:01:29 AM 39.4361 -84.4042 76° East 478 550 41,000  Level Indianapolis Center
Sun 10:02:29 AM 39.4650 -84.2375 77° East 478 550 41,000  Level Indianapolis Center
Sun 10:03:33 AM 39.4942 -84.0703 77° East 478 550 41,000  Level Indianapolis Center
Sun 10:04:32 AM 39.5222 -83.9042 78° East 478 550 41,000  Level Indianapolis Center
Sun 10:05:35 AM 39.5428 -83.7383 81° East 477 549 41,000  Level Indianapolis Center
Sun 10:06:37 AM 39.5583 -83.5736 83° East 472 543 41,000  Level Indianapolis Center
Sun 10:07:37 AM 39.5744 -83.4089 83° East 472 543 41,000  Level Indianapolis Center
Sun 10:08:41 AM 39.5936 -83.2119 83° East 470 541 41,000  Level Indianapolis Center
Sun 10:09:42 AM 39.6108 -83.0494 82° East 465 535 41,000  Level Indianapolis Center
Sun 10:10:43 AM 39.6261 -82.8850 83° East 464 534 41,000  Level Indianapolis Center
Sun 10:11:44 AM 39.6417 -82.7239 83° East 460 529 41,000  Level Indianapolis Center
Sun 10:12:48 AM 39.6567 -82.5611 83° East 459 528 41,000  Level Indianapolis Center
Sun 10:13:48 AM 39.6750 -82.3631 83° East 459 528 41,000  Level Indianapolis Center
Sun 10:14:50 AM 39.6894 -82.2000 83° East 459 528 41,000  Level Indianapolis Center
Sun 10:15:51 AM 39.7042 -82.0319 83° East 459 528 41,000  Level Indianapolis Center
Sun 10:16:55 AM 39.7186 -81.8689 83° East 460 529 41,000  Level Indianapolis Center
Sun 10:17:55 AM 39.7311 -81.7044 84° East 460 529 41,000  Level Indianapolis Center
Sun 10:18:57 AM 39.7464 -81.5389 83° East 460 529 41,000  Level Indianapolis Center
Sun 10:19:58 AM 39.7603 -81.3672 84° East 460 529 41,000  Level Indianapolis Center
Sun 10:20:28 AM 39.7692 -81.2644 84° East 460 529 41,000  Level Cleveland Center
Sun 10:21:29 AM 39.7814 -81.1003 84° East 460 529 41,000  Level Cleveland Center
Sun 10:22:31 AM 39.7942 -80.9358 84° East 460 529 41,000  Level Cleveland Center
Sun 10:23:33 AM 39.8064 -80.7750 84° East 451 519 41,000  Level Cleveland Center
Sun 10:24:34 AM 39.8186 -80.6081 85° East 465 535 41,000  Level Cleveland Center
Sun 10:25:36 AM 39.8311 -80.4433 84° East 463 533 41,000  Level Cleveland Center
Sun 10:26:37 AM 39.8283 -80.2467 91° East 461 531 41,000 -829 Level Cleveland Center
Sun 10:27:39 AM 39.8061 -80.0844 100° East 461 531 39,300 -2,081 Descending Cleveland Center
Sun 10:28:41 AM 39.7839 -79.9258 100° East 452 520 36,700 -2,439 Descending Cleveland Center
Sun 10:29:42 AM 39.7600 -79.7661 101° East 452 520 34,300 -2,244 Descending Cleveland Center
Sun 10:30:44 AM 39.7378 -79.6119 101° East 443 510 32,100 -2,098 Descending Cleveland Center
Sun 10:31:45 AM 39.7147 -79.4608 101° East 432 497 30,000 -2,244 Descending Cleveland Center
Sun 10:32:47 AM 39.6892 -79.2856 101° East 418 481 27,500 -2,129 Descending Cleveland Center
Sun 10:33:49 AM 39.6686 -79.1453 101° East 402 463 25,600 -1,220 Descending Cleveland Center
Sun 10:34:50 AM 39.6431 -79.0119 104° East 386 444 25,000 -878 Descending Cleveland Center
Sun 10:35:52 AM 39.6114 -78.8656 106° East 385 443 23,800 -1,065 Descending Cleveland Center
Sun 10:36:54 AM 39.5836 -78.7336 105° East 383 441 22,800 -976 Descending Cleveland Center
Sun 10:37:55 AM 39.5564 -78.6056 105° East 373 429 21,800 -1,266 Descending Cleveland Center
Sun 10:38:43 AM 39.5306 -78.5028 108° East 377 434 20,500 -1,651 Descending Washington Center
Sun 10:39:44 AM 39.5042 -78.3833 106° East 360 414 18,800 -1,525 Descending Washington Center
Sun 10:40:45 AM 39.4797 -78.2694 106° East 343 395 17,400 -1,785 Descending Washington Center
Sun 10:41:45 AM 39.4531 -78.1531 106° East 338 389 15,200 -1,220 Descending Washington Center
Sun 10:42:43 AM 39.4494 -78.0347 92° East 332 382 15,000 -555 Descending Washington Center
Sun 10:43:44 AM 39.4494 -77.9189 90° East 326 375 14,100 -942 Descending Washington Center
Sun 10:44:44 AM 39.4494 -77.8061 90° East 321 369 13,100 -1,000 Descending Washington Center
Sun 10:45:44 AM 39.4475 -77.6958 91° East 315 362 12,100 -992 Descending Washington Center
Sun 10:46:45 AM 39.4472 -77.5883 90° East 303 349 11,100 -504 Descending Washington Center
Sun 10:47:43 AM 39.4444 -77.4861 92° East 297 342 11,100  Level Washington Center
Sun 10:48:44 AM 39.4439 -77.3975 90° East 285 328 11,100  Level Washington Center
Sun 10:49:19 AM 39.4500 -77.3333 83° East 280 322 11,100 -313 Level Potomac TRACON
Sun 10:50:20 AM 39.4667 -77.2333 78° East 281 323 10,600 -991 Descending Potomac TRACON
Sun 10:51:14 AM 39.4500 -77.1333 102° East 284 327 9,200 -1,526 Descending Potomac TRACON
Sun 10:52:14 AM 39.4333 -77.0500 104° East 267 307 7,700 -1,650 Descending Potomac TRACON
Sun 10:53:14 AM 39.3667 -77.0000 150° Southeast 271 312 5,900 -1,850 Descending Potomac TRACON
Sun 10:54:14 AM 39.3000 -76.9333 142° Southeast 263 303 4,000 -1,722 Descending Potomac TRACON
Sun 10:55:09 AM 39.2667 -76.8833 131° Southeast 239 275 2,600 -730 Descending Potomac TRACON
Sun 10:56:09 AM 39.2167 -76.8333 142° Southeast 192 221 2,600 -300 Level Potomac TRACON
Sun 10:57:09 AM 39.1833 -76.7833 131° Southeast 144 166 2,000 -700 Descending Potomac TRACON
Sun 10:58:09 AM 39.1833 -76.7500 90° East 136 157 1,200 -800 Descending Potomac TRACON
Sun 10:59:09 AM 39.1833 -76.7000 90° East 131 151 400 -800 Descending Potomac TRACON
Sun 11:01:00 AM 39.1667 -76.6667 142° Southeast  Level FlightAware Approximate
Sun 11:08:00 AM 39.1754 -76.6683 142° Southeast  Level Estimated
Sun 11:09:00 AM 39.1754 -76.6683 142° Southeast  Level Estimated
Sun 11:10:00 AM 39.1754 -76.6683 142° Southeast  Level Estimated
Sun 11:11:00 AM 39.1754 -76.6683 142° Southeast  Level Estimated

Login

Don't have an account? Register now (free) for customized features, flight alerts, and more!